首页
METAR-TAF:

METAR-TAF

机场 :

Fort Chipewyan, 艾伯塔, 加拿大

纬度: 58-46N, 经度: 111-07W, 海拔: 232米

当前天气观测

该预报发布于34分钟前的09:00 UTC
风速5节,风向东转东北
温度 -16°C
湿度 78%
气压 1017 hPa
能見度: 14.5公里
阴天层高于8000英尺

METAR: CYPY 050900Z AUTO 06005KT 9SM OVC080 M16/M19 A3002 RMK SLP189

时间: 03:34 (09:34 UTC)

预报

该预报发布于9小时和56分钟前的23:38 UTC
预报有效从05日的 00点(UTC)到 05日的 06点(UTC)
风速8节,风向
能見度: 10公里
少量云层高于5000英尺

TAF: CYPY 042338Z 0500/0506 10008KT P6SM FEW050 RMK FCST BASED ON AUTO OBS. NXT FCST WILL BE ISSUED AT 051145Z

超过4000个机场的气象观测和天气预报(METAR&TAF报告)。

可查询的气象台以黄色和红色小点在地图上表示。

将鼠标移到小点上方,可查看气象台名称。

然后点击查看天气观测和预报。

如需切换地图:点击带黑十字的绿色按钮放大地图;点击带横线的绿色按钮缩小地图;或者点击绿色箭头查看邻近地区的地图。


METAR-TAF: